sensor_id;sensor_type;location;lat;lon;timestamp;temperature;humidity
68912;SHT31;55953;51.650;-0.522;2024-03-23T00:53:00;5.57;72.65
68912;SHT31;55953;51.650;-0.522;2024-03-23T00:55:27;5.55;72.59
68912;SHT31;55953;51.650;-0.522;2024-03-23T00:57:55;5.53;72.88
68912;SHT31;55953;51.650;-0.522;2024-03-23T01:00:22;5.51;73.24
68912;SHT31;55953;51.650;-0.522;2024-03-23T01:02:50;5.48;73.18
68912;SHT31;55953;51.650;-0.522;2024-03-23T01:05:18;5.46;73.22
68912;SHT31;55953;51.650;-0.522;2024-03-23T01:07:46;5.43;73.81
68912;SHT31;55953;51.650;-0.522;2024-03-23T01:10:13;5.43;73.87
68912;SHT31;55953;51.650;-0.522;2024-03-23T01:12:41;5.45;73.72
68912;SHT31;55953;51.650;-0.522;2024-03-23T01:15:09;5.45;73.76
68912;SHT31;55953;51.650;-0.522;2024-03-23T01:17:36;5.42;73.94
68912;SHT31;55953;51.650;-0.522;2024-03-23T01:20:04;5.41;74.41
68912;SHT31;55953;51.650;-0.522;2024-03-23T01:22:33;5.41;74.36
68912;SHT31;55953;51.650;-0.522;2024-03-23T01:25:01;5.39;74.39
68912;SHT31;55953;51.650;-0.522;2024-03-23T01:27:28;5.36;74.45
68912;SHT31;55953;51.650;-0.522;2024-03-23T01:29:56;5.34;74.51
68912;SHT31;55953;51.650;-0.522;2024-03-23T01:32:24;5.31;74.44
68912;SHT31;55953;51.650;-0.522;2024-03-23T01:34:51;5.32;74.57
68912;SHT31;55953;51.650;-0.522;2024-03-23T01:37:19;5.32;74.48
68912;SHT31;55953;51.650;-0.522;2024-03-23T01:39:46;5.30;74.70
68912;SHT31;55953;51.650;-0.522;2024-03-23T01:42:14;5.30;74.64
68912;SHT31;55953;51.650;-0.522;2024-03-23T01:44:42;5.29;74.60
68912;SHT31;55953;51.650;-0.522;2024-03-23T01:47:09;5.28;74.72
68912;SHT31;55953;51.650;-0.522;2024-03-23T01:49:37;5.27;74.95
68912;SHT31;55953;51.650;-0.522;2024-03-23T01:52:05;5.24;74.94
68912;SHT31;55953;51.650;-0.522;2024-03-23T01:54:33;5.23;74.84
68912;SHT31;55953;51.650;-0.522;2024-03-23T01:57:02;5.22;74.69
68912;SHT31;55953;51.650;-0.522;2024-03-23T01:59:31;5.18;74.92
68912;SHT31;55953;51.650;-0.522;2024-03-23T02:01:59;5.17;74.84
68912;SHT31;55953;51.650;-0.522;2024-03-23T02:04:28;5.14;74.83
68912;SHT31;55953;51.650;-0.522;2024-03-23T02:06:56;5.12;75.06
68912;SHT31;55953;51.650;-0.522;2024-03-23T02:09:23;5.11;74.95
68912;SHT31;55953;51.650;-0.522;2024-03-23T02:11:52;5.11;75.14
68912;SHT31;55953;51.650;-0.522;2024-03-23T02:14:20;5.10;75.39
68912;SHT31;55953;51.650;-0.522;2024-03-23T02:16:47;5.11;75.34
68912;SHT31;55953;51.650;-0.522;2024-03-23T02:19:15;5.10;75.19
68912;SHT31;55953;51.650;-0.522;2024-03-23T02:21:43;5.09;75.41
68912;SHT31;55953;51.650;-0.522;2024-03-23T02:24:10;5.11;75.30
68912;SHT31;55953;51.650;-0.522;2024-03-23T02:26:38;5.10;75.30
68912;SHT31;55953;51.650;-0.522;2024-03-23T02:29:05;5.11;75.25
68912;SHT31;55953;51.650;-0.522;2024-03-23T02:31:33;5.09;75.33
68912;SHT31;55953;51.650;-0.522;2024-03-23T02:34:00;5.09;75.10
68912;SHT31;55953;51.650;-0.522;2024-03-23T02:36:28;5.05;74.97
68912;SHT31;55953;51.650;-0.522;2024-03-23T02:38:57;5.02;75.08
68912;SHT31;55953;51.650;-0.522;2024-03-23T02:41:25;5.00;75.13
68912;SHT31;55953;51.650;-0.522;2024-03-23T02:43:53;4.97;75.32
68912;SHT31;55953;51.650;-0.522;2024-03-23T02:46:20;4.98;75.26
68912;SHT31;55953;51.650;-0.522;2024-03-23T02:48:48;4.97;75.26
68912;SHT31;55953;51.650;-0.522;2024-03-23T02:51:16;4.92;75.26
68912;SHT31;55953;51.650;-0.522;2024-03-23T02:53:44;4.88;75.29
68912;SHT31;55953;51.650;-0.522;2024-03-23T02:56:11;4.86;75.38
68912;SHT31;55953;51.650;-0.522;2024-03-23T02:58:43;4.85;75.49
68912;SHT31;55953;51.650;-0.522;2024-03-23T03:01:11;4.84;75.45
68912;SHT31;55953;51.650;-0.522;2024-03-23T03:03:38;4.82;75.64
68912;SHT31;55953;51.650;-0.522;2024-03-23T03:06:06;4.80;75.66
68912;SHT31;55953;51.650;-0.522;2024-03-23T03:08:34;4.77;75.72
68912;SHT31;55953;51.650;-0.522;2024-03-23T03:11:01;4.75;75.73
68912;SHT31;55953;51.650;-0.522;2024-03-23T03:13:29;4.72;75.88
68912;SHT31;55953;51.650;-0.522;2024-03-23T03:15:56;4.70;75.79
68912;SHT31;55953;51.650;-0.522;2024-03-23T03:18:25;4.68;75.95
68912;SHT31;55953;51.650;-0.522;2024-03-23T03:20:54;4.67;75.74
68912;SHT31;55953;51.650;-0.522;2024-03-23T03:23:22;4.67;75.81
68912;SHT31;55953;51.650;-0.522;2024-03-23T03:25:49;4.65;75.84
68912;SHT31;55953;51.650;-0.522;2024-03-23T03:28:17;4.62;75.78
68912;SHT31;55953;51.650;-0.522;2024-03-23T03:30:45;4.64;75.91
68912;SHT31;55953;51.650;-0.522;2024-03-23T03:33:13;4.65;75.68
68912;SHT31;55953;51.650;-0.522;2024-03-23T03:35:40;4.64;75.63
68912;SHT31;55953;51.650;-0.522;2024-03-23T03:38:08;4.64;75.72
68912;SHT31;55953;51.650;-0.522;2024-03-23T03:40:35;4.63;75.94
68912;SHT31;55953;51.650;-0.522;2024-03-23T03:43:03;4.65;75.99
68912;SHT31;55953;51.650;-0.522;2024-03-23T03:45:31;4.66;75.84
68912;SHT31;55953;51.650;-0.522;2024-03-23T03:47:58;4.64;75.92
68912;SHT31;55953;51.650;-0.522;2024-03-23T03:50:26;4.63;75.93
68912;SHT31;55953;51.650;-0.522;2024-03-23T03:52:54;4.64;75.98
68912;SHT31;55953;51.650;-0.522;2024-03-23T03:55:21;4.61;75.98
68912;SHT31;55953;51.650;-0.522;2024-03-23T03:57:49;4.60;76.04
68912;SHT31;55953;51.650;-0.522;2024-03-23T04:00:16;4.60;76.15
68912;SHT31;55953;51.650;-0.522;2024-03-23T04:02:44;4.61;75.99
68912;SHT31;55953;51.650;-0.522;2024-03-23T04:05:12;4.59;76.03
68912;SHT31;55953;51.650;-0.522;2024-03-23T04:07:40;4.57;76.22
68912;SHT31;55953;51.650;-0.522;2024-03-23T04:10:07;4.58;76.35
68912;SHT31;55953;51.650;-0.522;2024-03-23T04:12:35;4.59;76.15
68912;SHT31;55953;51.650;-0.522;2024-03-23T04:15:03;4.59;76.11
68912;SHT31;55953;51.650;-0.522;2024-03-23T04:17:32;4.61;76.11
68912;SHT31;55953;51.650;-0.522;2024-03-23T04:20:01;4.59;75.96
68912;SHT31;55953;51.650;-0.522;2024-03-23T04:22:31;4.56;76.04
68912;SHT31;55953;51.650;-0.522;2024-03-23T04:24:58;4.52;76.13
68912;SHT31;55953;51.650;-0.522;2024-03-23T04:27:26;4.49;76.18
68912;SHT31;55953;51.650;-0.522;2024-03-23T04:29:54;4.46;76.17
68912;SHT31;55953;51.650;-0.522;2024-03-23T04:32:21;4.43;76.34
68912;SHT31;55953;51.650;-0.522;2024-03-23T04:34:49;4.43;76.35
68912;SHT31;55953;51.650;-0.522;2024-03-23T04:37:17;4.43;76.46
68912;SHT31;55953;51.650;-0.522;2024-03-23T04:39:45;4.42;76.31
68912;SHT31;55953;51.650;-0.522;2024-03-23T04:42:14;4.42;76.19
68912;SHT31;55953;51.650;-0.522;2024-03-23T04:44:44;4.40;76.09
68912;SHT31;55953;51.650;-0.522;2024-03-23T04:47:12;4.36;76.28
68912;SHT31;55953;51.650;-0.522;2024-03-23T04:49:39;4.34;76.25
68912;SHT31;55953;51.650;-0.522;2024-03-23T04:52:07;4.34;76.27
68912;SHT31;55953;51.650;-0.522;2024-03-23T04:54:35;4.34;76.32
68912;SHT31;55953;51.650;-0.522;2024-03-23T04:57:02;4.35;76.19
68912;SHT31;55953;51.650;-0.522;2024-03-23T04:59:31;4.35;76.03
68912;SHT31;55953;51.650;-0.522;2024-03-23T05:01:59;4.32;76.21
68912;SHT31;55953;51.650;-0.522;2024-03-23T05:04:27;4.30;76.27
68912;SHT31;55953;51.650;-0.522;2024-03-23T05:06:55;4.28;76.28
68912;SHT31;55953;51.650;-0.522;2024-03-23T05:09:22;4.26;76.37
68912;SHT31;55953;51.650;-0.522;2024-03-23T05:11:50;4.27;76.47
68912;SHT31;55953;51.650;-0.522;2024-03-23T05:14:17;4.27;76.50
68912;SHT31;55953;51.650;-0.522;2024-03-23T05:16:45;4.27;76.34
68912;SHT31;55953;51.650;-0.522;2024-03-23T05:19:12;4.22;76.40
68912;SHT31;55953;51.650;-0.522;2024-03-23T05:21:40;4.21;76.49
68912;SHT31;55953;51.650;-0.522;2024-03-23T05:24:08;4.20;76.59
68912;SHT31;55953;51.650;-0.522;2024-03-23T05:26:36;4.20;76.47
68912;SHT31;55953;51.650;-0.522;2024-03-23T05:29:03;4.21;76.52
68912;SHT31;55953;51.650;-0.522;2024-03-23T05:31:31;4.21;76.47
68912;SHT31;55953;51.650;-0.522;2024-03-23T05:33:59;4.18;76.50
68912;SHT31;55953;51.650;-0.522;2024-03-23T05:36:26;4.17;76.51
68912;SHT31;55953;51.650;-0.522;2024-03-23T05:38:54;4.15;76.52
68912;SHT31;55953;51.650;-0.522;2024-03-23T05:41:21;4.14;76.59
68912;SHT31;55953;51.650;-0.522;2024-03-23T05:43:51;4.15;76.54
68912;SHT31;55953;51.650;-0.522;2024-03-23T05:46:19;4.16;76.43
68912;SHT31;55953;51.650;-0.522;2024-03-23T05:48:46;4.16;76.47
68912;SHT31;55953;51.650;-0.522;2024-03-23T05:51:14;4.14;76.42
68912;SHT31;55953;51.650;-0.522;2024-03-23T05:53:44;4.13;76.56
68912;SHT31;55953;51.650;-0.522;2024-03-23T05:56:12;4.14;76.49
68912;SHT31;55953;51.650;-0.522;2024-03-23T05:58:39;4.14;76.42
68912;SHT31;55953;51.650;-0.522;2024-03-23T06:01:07;4.12;76.64
68912;SHT31;55953;51.650;-0.522;2024-03-23T06:03:35;4.13;76.49
68912;SHT31;55953;51.650;-0.522;2024-03-23T06:06:03;4.15;76.55
68912;SHT31;55953;51.650;-0.522;2024-03-23T06:08:31;4.19;76.46
68912;SHT31;55953;51.650;-0.522;2024-03-23T06:10:59;4.21;76.33
68912;SHT31;55953;51.650;-0.522;2024-03-23T06:13:26;4.21;76.39
68912;SHT31;55953;51.650;-0.522;2024-03-23T06:15:57;4.21;76.44
68912;SHT31;55953;51.650;-0.522;2024-03-23T06:18:25;4.22;76.32
68912;SHT31;55953;51.650;-0.522;2024-03-23T06:20:53;4.24;76.30
68912;SHT31;55953;51.650;-0.522;2024-03-23T06:23:21;4.24;76.33
68912;SHT31;55953;51.650;-0.522;2024-03-23T06:25:48;4.27;76.32
68912;SHT31;55953;51.650;-0.522;2024-03-23T06:28:17;4.28;76.31
68912;SHT31;55953;51.650;-0.522;2024-03-23T06:30:45;4.31;76.18
68912;SHT31;55953;51.650;-0.522;2024-03-23T06:33:13;4.35;76.17
68912;SHT31;55953;51.650;-0.522;2024-03-23T06:35:41;4.40;76.06
68912;SHT31;55953;51.650;-0.522;2024-03-23T06:38:09;4.44;76.00
68912;SHT31;55953;51.650;-0.522;2024-03-23T06:40:36;4.48;75.90
68912;SHT31;55953;51.650;-0.522;2024-03-23T06:43:04;4.53;75.80
68912;SHT31;55953;51.650;-0.522;2024-03-23T06:45:32;4.55;75.73
68912;SHT31;55953;51.650;-0.522;2024-03-23T06:48:00;4.60;75.59
68912;SHT31;55953;51.650;-0.522;2024-03-23T06:50:28;4.66;75.40
68912;SHT31;55953;51.650;-0.522;2024-03-23T06:52:55;4.72;75.33
68912;SHT31;55953;51.650;-0.522;2024-03-23T06:55:23;4.76;75.18
68912;SHT31;55953;51.650;-0.522;2024-03-23T06:57:52;4.82;75.10
68912;SHT31;55953;51.650;-0.522;2024-03-23T07:00:19;4.88;75.02
68912;SHT31;55953;51.650;-0.522;2024-03-23T07:02:47;4.91;74.94
68912;SHT31;55953;51.650;-0.522;2024-03-23T07:05:15;4.97;74.80
68912;SHT31;55953;51.650;-0.522;2024-03-23T07:07:42;5.02;74.78
68912;SHT31;55953;51.650;-0.522;2024-03-23T07:10:10;5.08;74.66
68912;SHT31;55953;51.650;-0.522;2024-03-23T07:12:37;5.13;74.42
68912;SHT31;55953;51.650;-0.522;2024-03-23T07:15:05;5.18;74.55
68912;SHT31;55953;51.650;-0.522;2024-03-23T07:17:35;5.25;74.34
68912;SHT31;55953;51.650;-0.522;2024-03-23T07:20:03;5.32;74.25
68912;SHT31;55953;51.650;-0.522;2024-03-23T07:22:31;5.48;74.06
68912;SHT31;55953;51.650;-0.522;2024-03-23T07:25:00;5.82;73.56
68912;SHT31;55953;51.650;-0.522;2024-03-23T07:27:28;6.09;72.45
68912;SHT31;55953;51.650;-0.522;2024-03-23T07:29:56;6.25;72.31
68912;SHT31;55953;51.650;-0.522;2024-03-23T07:32:24;6.28;71.98
68912;SHT31;55953;51.650;-0.522;2024-03-23T07:34:51;6.27;71.79
68912;SHT31;55953;51.650;-0.522;2024-03-23T07:37:19;6.22;71.88
68912;SHT31;55953;51.650;-0.522;2024-03-23T07:39:46;6.20;71.67
68912;SHT31;55953;51.650;-0.522;2024-03-23T07:42:14;6.21;71.92
68912;SHT31;55953;51.650;-0.522;2024-03-23T07:44:42;6.21;71.55
68912;SHT31;55953;51.650;-0.522;2024-03-23T07:47:10;6.22;71.41
68912;SHT31;55953;51.650;-0.522;2024-03-23T07:49:38;6.30;71.68
68912;SHT31;55953;51.650;-0.522;2024-03-23T07:52:07;6.54;71.53
68912;SHT31;55953;51.650;-0.522;2024-03-23T07:54:35;6.69;70.17
68912;SHT31;55953;51.650;-0.522;2024-03-23T07:57:03;6.88;70.17
68912;SHT31;55953;51.650;-0.522;2024-03-23T07:59:31;6.91;68.96
68912;SHT31;55953;51.650;-0.522;2024-03-23T08:02:01;6.93;69.60
68912;SHT31;55953;51.650;-0.522;2024-03-23T08:04:28;7.04;69.56
68912;SHT31;55953;51.650;-0.522;2024-03-23T08:06:56;7.17;69.18
68912;SHT31;55953;51.650;-0.522;2024-03-23T08:09:24;7.22;68.63
68912;SHT31;55953;51.650;-0.522;2024-03-23T08:11:51;7.17;67.62
68912;SHT31;55953;51.650;-0.522;2024-03-23T08:14:19;7.20;68.39
68912;SHT31;55953;51.650;-0.522;2024-03-23T08:16:47;7.25;68.23
68912;SHT31;55953;51.650;-0.522;2024-03-23T08:19:16;7.24;68.06
68912;SHT31;55953;51.650;-0.522;2024-03-23T08:21:44;7.25;68.14
68912;SHT31;55953;51.650;-0.522;2024-03-23T08:24:11;7.25;67.92
68912;SHT31;55953;51.650;-0.522;2024-03-23T08:26:39;7.30;67.77
68912;SHT31;55953;51.650;-0.522;2024-03-23T08:29:07;7.38;67.69
68912;SHT31;55953;51.650;-0.522;2024-03-23T08:31:34;7.49;66.62
68912;SHT31;55953;51.650;-0.522;2024-03-23T08:34:02;7.60;65.67
68912;SHT31;55953;51.650;-0.522;2024-03-23T08:36:29;7.75;65.79
68912;SHT31;55953;51.650;-0.522;2024-03-23T08:38:58;7.89;65.87
68912;SHT31;55953;51.650;-0.522;2024-03-23T08:41:26;8.03;65.28
68912;SHT31;55953;51.650;-0.522;2024-03-23T08:43:54;8.06;64.34
68912;SHT31;55953;51.650;-0.522;2024-03-23T08:46:21;8.11;64.91
68912;SHT31;55953;51.650;-0.522;2024-03-23T08:48:49;8.16;64.09
68912;SHT31;55953;51.650;-0.522;2024-03-23T08:51:17;8.32;64.60
68912;SHT31;55953;51.650;-0.522;2024-03-23T08:53:45;8.47;64.11
68912;SHT31;55953;51.650;-0.522;2024-03-23T08:56:13;8.59;63.66
68912;SHT31;55953;51.650;-0.522;2024-03-23T08:58:40;8.80;62.90
68912;SHT31;55953;51.650;-0.522;2024-03-23T09:01:09;8.92;62.15
68912;SHT31;55953;51.650;-0.522;2024-03-23T09:03:39;8.98;61.58
68912;SHT31;55953;51.650;-0.522;2024-03-23T09:06:08;9.11;61.68
68912;SHT31;55953;51.650;-0.522;2024-03-23T09:08:37;9.14;60.83
68912;SHT31;55953;51.650;-0.522;2024-03-23T09:11:07;9.08;60.59
68912;SHT31;55953;51.650;-0.522;2024-03-23T09:13:37;9.13;61.26
68912;SHT31;55953;51.650;-0.522;2024-03-23T09:16:06;9.17;61.68
68912;SHT31;55953;51.650;-0.522;2024-03-23T09:18:34;9.24;61.86
68912;SHT31;55953;51.650;-0.522;2024-03-23T09:21:04;9.41;61.48
68912;SHT31;55953;51.650;-0.522;2024-03-23T09:23:38;9.58;60.21
68912;SHT31;55953;51.650;-0.522;2024-03-23T09:26:06;9.73;60.70
68912;SHT31;55953;51.650;-0.522;2024-03-23T09:28:37;9.80;60.02
68912;SHT31;55953;51.650;-0.522;2024-03-23T09:31:05;9.66;59.75
68912;SHT31;55953;51.650;-0.522;2024-03-23T09:33:34;9.48;60.09
68912;SHT31;55953;51.650;-0.522;2024-03-23T09:36:03;9.53;60.03
68912;SHT31;55953;51.650;-0.522;2024-03-23T09:38:32;9.55;59.64
68912;SHT31;55953;51.650;-0.522;2024-03-23T09:41:00;9.51;59.36
68912;SHT31;55953;51.650;-0.522;2024-03-23T09:43:35;9.41;59.45
68912;SHT31;55953;51.650;-0.522;2024-03-23T09:46:03;9.40;59.41
68912;SHT31;55953;51.650;-0.522;2024-03-23T09:48:31;9.42;58.96
68912;SHT31;55953;51.650;-0.522;2024-03-23T09:50:59;9.35;58.44
68912;SHT31;55953;51.650;-0.522;2024-03-23T09:53:26;9.39;58.70
68912;SHT31;55953;51.650;-0.522;2024-03-23T09:55:54;9.48;58.44
68912;SHT31;55953;51.650;-0.522;2024-03-23T09:58:23;9.66;58.87
68912;SHT31;55953;51.650;-0.522;2024-03-23T10:00:51;9.79;59.41
68912;SHT31;55953;51.650;-0.522;2024-03-23T10:03:18;9.82;58.76
68912;SHT31;55953;51.650;-0.522;2024-03-23T10:05:46;9.81;59.08
68912;SHT31;55953;51.650;-0.522;2024-03-23T10:10:43;9.63;58.54
68912;SHT31;55953;51.650;-0.522;2024-03-23T10:13:23;9.55;58.33
68912;SHT31;55953;51.650;-0.522;2024-03-23T10:15:59;9.62;58.87
68912;SHT31;55953;51.650;-0.522;2024-03-23T10:18:26;9.79;59.31
68912;SHT31;55953;51.650;-0.522;2024-03-23T10:23:35;9.99;58.35
68912;SHT31;55953;51.650;-0.522;2024-03-23T10:26:16;9.92;57.15
68912;SHT31;55953;51.650;-0.522;2024-03-23T10:28:58;9.84;56.77
68912;SHT31;55953;51.650;-0.522;2024-03-23T10:31:29;9.78;56.73
68912;SHT31;55953;51.650;-0.522;2024-03-23T10:33:58;9.74;56.85
68912;SHT31;55953;51.650;-0.522;2024-03-23T10:36:28;9.75;57.36
68912;SHT31;55953;51.650;-0.522;2024-03-23T10:38:57;9.88;57.05
68912;SHT31;55953;51.650;-0.522;2024-03-23T10:41:27;9.97;56.79
68912;SHT31;55953;51.650;-0.522;2024-03-23T10:43:59;10.07;56.82
68912;SHT31;55953;51.650;-0.522;2024-03-23T10:46:29;10.27;56.42
68912;SHT31;55953;51.650;-0.522;2024-03-23T10:48:58;10.35;55.74
68912;SHT31;55953;51.650;-0.522;2024-03-23T10:51:26;10.42;55.54
68912;SHT31;55953;51.650;-0.522;2024-03-23T10:53:53;10.59;56.29
68912;SHT31;55953;51.650;-0.522;2024-03-23T10:56:24;10.75;56.05
68912;SHT31;55953;51.650;-0.522;2024-03-23T10:58:56;10.89;55.13
68912;SHT31;55953;51.650;-0.522;2024-03-23T11:01:24;10.84;54.45
68912;SHT31;55953;51.650;-0.522;2024-03-23T11:03:52;10.66;53.29
68912;SHT31;55953;51.650;-0.522;2024-03-23T11:06:38;10.62;54.55
68912;SHT31;55953;51.650;-0.522;2024-03-23T11:14:47;10.47;54.41
68912;SHT31;55953;51.650;-0.522;2024-03-23T11:17:22;10.52;54.99
68912;SHT31;55953;51.650;-0.522;2024-03-23T11:22:42;10.96;52.71
68912;SHT31;55953;51.650;-0.522;2024-03-23T11:25:20;10.93;52.65
68912;SHT31;55953;51.650;-0.522;2024-03-23T11:27:51;10.90;51.98
68912;SHT31;55953;51.650;-0.522;2024-03-23T11:30:21;10.93;52.77
68912;SHT31;55953;51.650;-0.522;2024-03-23T11:32:55;11.07;52.45
68912;SHT31;55953;51.650;-0.522;2024-03-23T11:35:28;11.20;51.23
68912;SHT31;55953;51.650;-0.522;2024-03-23T11:38:05;11.28;50.24
68912;SHT31;55953;51.650;-0.522;2024-03-23T11:40:39;11.32;49.31
68912;SHT31;55953;51.650;-0.522;2024-03-23T11:43:12;11.27;49.55
68912;SHT31;55953;51.650;-0.522;2024-03-23T11:45:45;11.18;49.98
68912;SHT31;55953;51.650;-0.522;2024-03-23T11:48:15;11.28;50.93
68912;SHT31;55953;51.650;-0.522;2024-03-23T11:50:46;11.38;50.39
68912;SHT31;55953;51.650;-0.522;2024-03-23T11:55:49;11.29;50.34
68912;SHT31;55953;51.650;-0.522;2024-03-23T11:58:24;11.27;49.63
68912;SHT31;55953;51.650;-0.522;2024-03-23T12:01:00;11.29;50.23
68912;SHT31;55953;51.650;-0.522;2024-03-23T12:03:30;11.34;50.21
68912;SHT31;55953;51.650;-0.522;2024-03-23T12:06:02;11.41;51.12
68912;SHT31;55953;51.650;-0.522;2024-03-23T12:08:32;11.49;50.77
68912;SHT31;55953;51.650;-0.522;2024-03-23T12:11:12;11.42;51.24
68912;SHT31;55953;51.650;-0.522;2024-03-23T12:13:45;11.53;52.62
68912;SHT31;55953;51.650;-0.522;2024-03-23T12:16:17;11.62;52.90
68912;SHT31;55953;51.650;-0.522;2024-03-23T12:18:49;11.77;53.46
68912;SHT31;55953;51.650;-0.522;2024-03-23T12:21:20;11.84;53.17
68912;SHT31;55953;51.650;-0.522;2024-03-23T12:23:49;11.81;52.36
68912;SHT31;55953;51.650;-0.522;2024-03-23T12:26:17;11.67;51.52
68912;SHT31;55953;51.650;-0.522;2024-03-23T12:28:45;11.61;52.30
68912;SHT31;55953;51.650;-0.522;2024-03-23T12:31:12;11.71;52.30
68912;SHT31;55953;51.650;-0.522;2024-03-23T12:33:40;11.74;53.04
68912;SHT31;55953;51.650;-0.522;2024-03-23T12:36:08;11.82;52.96
68912;SHT31;55953;51.650;-0.522;2024-03-23T12:38:36;11.93;51.35
68912;SHT31;55953;51.650;-0.522;2024-03-23T12:41:03;11.94;51.86
68912;SHT31;55953;51.650;-0.522;2024-03-23T12:43:32;11.80;51.37
68912;SHT31;55953;51.650;-0.522;2024-03-23T12:45:59;11.75;51.26
68912;SHT31;55953;51.650;-0.522;2024-03-23T12:48:27;11.74;51.57
68912;SHT31;55953;51.650;-0.522;2024-03-23T12:50:55;11.84;51.80
68912;SHT31;55953;51.650;-0.522;2024-03-23T12:53:23;12.00;51.49
68912;SHT31;55953;51.650;-0.522;2024-03-23T12:55:50;12.19;50.80
68912;SHT31;55953;51.650;-0.522;2024-03-23T12:58:18;12.26;49.99
68912;SHT31;55953;51.650;-0.522;2024-03-23T13:00:46;12.30;49.81
68912;SHT31;55953;51.650;-0.522;2024-03-23T13:03:13;12.05;50.67
68912;SHT31;55953;51.650;-0.522;2024-03-23T13:05:42;11.52;53.90
68912;SHT31;55953;51.650;-0.522;2024-03-23T13:08:10;10.97;58.63
68912;SHT31;55953;51.650;-0.522;2024-03-23T13:10:40;10.02;63.03
68912;SHT31;55953;51.650;-0.522;2024-03-23T13:13:08;9.34;65.18
68912;SHT31;55953;51.650;-0.522;2024-03-23T13:15:35;9.21;66.53
68912;SHT31;55953;51.650;-0.522;2024-03-23T13:18:03;9.38;66.28
68912;SHT31;55953;51.650;-0.522;2024-03-23T13:20:31;9.67;65.18
68912;SHT31;55953;51.650;-0.522;2024-03-23T13:22:58;10.05;64.27
68912;SHT31;55953;51.650;-0.522;2024-03-23T13:25:26;10.28;63.23
68912;SHT31;55953;51.650;-0.522;2024-03-23T13:27:53;10.30;62.19
68912;SHT31;55953;51.650;-0.522;2024-03-23T13:30:21;10.25;61.52
68912;SHT31;55953;51.650;-0.522;2024-03-23T13:32:49;10.10;61.32
68912;SHT31;55953;51.650;-0.522;2024-03-23T13:35:17;9.96;61.68
68912;SHT31;55953;51.650;-0.522;2024-03-23T13:37:45;9.85;62.42
68912;SHT31;55953;51.650;-0.522;2024-03-23T13:40:12;9.82;63.10
68912;SHT31;55953;51.650;-0.522;2024-03-23T13:42:40;10.02;63.18
68912;SHT31;55953;51.650;-0.522;2024-03-23T13:45:08;10.07;60.79
68912;SHT31;55953;51.650;-0.522;2024-03-23T13:47:44;10.01;61.28
68912;SHT31;55953;51.650;-0.522;2024-03-23T13:50:12;10.00;60.39
68912;SHT31;55953;51.650;-0.522;2024-03-23T13:52:39;9.84;59.74
68912;SHT31;55953;51.650;-0.522;2024-03-23T13:55:07;9.67;59.78
68912;SHT31;55953;51.650;-0.522;2024-03-23T13:57:36;9.64;60.00
68912;SHT31;55953;51.650;-0.522;2024-03-23T14:00:06;9.68;59.77
68912;SHT31;55953;51.650;-0.522;2024-03-23T14:02:39;9.80;59.73
68912;SHT31;55953;51.650;-0.522;2024-03-23T14:05:07;10.01;58.74
68912;SHT31;55953;51.650;-0.522;2024-03-23T14:07:35;10.25;58.41
68912;SHT31;55953;51.650;-0.522;2024-03-23T14:10:03;10.45;57.13
68912;SHT31;55953;51.650;-0.522;2024-03-23T14:12:33;10.61;56.73
68912;SHT31;55953;51.650;-0.522;2024-03-23T14:15:01;10.65;55.51
68912;SHT31;55953;51.650;-0.522;2024-03-23T14:17:30;10.72;55.68
68912;SHT31;55953;51.650;-0.522;2024-03-23T14:19:57;10.86;54.94
68912;SHT31;55953;51.650;-0.522;2024-03-23T14:22:38;10.96;54.62
68912;SHT31;55953;51.650;-0.522;2024-03-23T14:25:08;10.94;53.40
68912;SHT31;55953;51.650;-0.522;2024-03-23T14:27:36;10.94;54.27
68912;SHT31;55953;51.650;-0.522;2024-03-23T14:30:04;10.83;53.67
68912;SHT31;55953;51.650;-0.522;2024-03-23T14:32:33;10.64;53.69
68912;SHT31;55953;51.650;-0.522;2024-03-23T14:35:04;10.64;54.19
68912;SHT31;55953;51.650;-0.522;2024-03-23T14:37:34;10.87;54.29
68912;SHT31;55953;51.650;-0.522;2024-03-23T14:40:01;11.11;54.02
68912;SHT31;55953;51.650;-0.522;2024-03-23T14:42:30;11.21;53.98
68912;SHT31;55953;51.650;-0.522;2024-03-23T14:44:59;11.27;54.17
68912;SHT31;55953;51.650;-0.522;2024-03-23T14:47:27;11.25;54.28
68912;SHT31;55953;51.650;-0.522;2024-03-23T14:49:55;11.27;53.85
68912;SHT31;55953;51.650;-0.522;2024-03-23T14:52:23;11.26;53.27
68912;SHT31;55953;51.650;-0.522;2024-03-23T14:54:50;11.31;52.97
68912;SHT31;55953;51.650;-0.522;2024-03-23T14:57:18;11.25;52.82
68912;SHT31;55953;51.650;-0.522;2024-03-23T14:59:47;11.09;53.27
68912;SHT31;55953;51.650;-0.522;2024-03-23T15:02:15;11.15;54.02
68912;SHT31;55953;51.650;-0.522;2024-03-23T15:04:43;11.20;54.43
68912;SHT31;55953;51.650;-0.522;2024-03-23T15:07:10;10.97;54.55
68912;SHT31;55953;51.650;-0.522;2024-03-23T15:09:38;10.69;56.28
68912;SHT31;55953;51.650;-0.522;2024-03-23T15:12:06;9.93;60.22
68912;SHT31;55953;51.650;-0.522;2024-03-23T15:14:34;9.15;63.23
68912;SHT31;55953;51.650;-0.522;2024-03-23T15:17:02;8.65;63.01
68912;SHT31;55953;51.650;-0.522;2024-03-23T15:19:34;8.40;63.37
68912;SHT31;55953;51.650;-0.522;2024-03-23T15:22:01;8.20;63.08
68912;SHT31;55953;51.650;-0.522;2024-03-23T15:24:29;8.15;63.61
68912;SHT31;55953;51.650;-0.522;2024-03-23T15:26:58;8.31;64.66
68912;SHT31;55953;51.650;-0.522;2024-03-23T15:29:27;8.55;65.33
68912;SHT31;55953;51.650;-0.522;2024-03-23T15:31:55;8.70;64.83
68912;SHT31;55953;51.650;-0.522;2024-03-23T15:34:23;8.73;64.78
68912;SHT31;55953;51.650;-0.522;2024-03-23T15:36:51;8.81;64.71
68912;SHT31;55953;51.650;-0.522;2024-03-23T15:39:19;8.85;64.34
68912;SHT31;55953;51.650;-0.522;2024-03-23T15:41:46;8.79;64.27
68912;SHT31;55953;51.650;-0.522;2024-03-23T15:44:14;8.78;64.41
68912;SHT31;55953;51.650;-0.522;2024-03-23T15:46:42;8.79;64.41
68912;SHT31;55953;51.650;-0.522;2024-03-23T15:49:10;8.73;64.26
68912;SHT31;55953;51.650;-0.522;2024-03-23T15:51:38;8.66;64.42
68912;SHT31;55953;51.650;-0.522;2024-03-23T15:54:08;8.53;64.28
68912;SHT31;55953;51.650;-0.522;2024-03-23T15:56:36;8.37;64.63
68912;SHT31;55953;51.650;-0.522;2024-03-23T15:59:05;8.28;65.02
68912;SHT31;55953;51.650;-0.522;2024-03-23T16:01:33;8.24;64.84
68912;SHT31;55953;51.650;-0.522;2024-03-23T16:04:02;8.35;65.06
68912;SHT31;55953;51.650;-0.522;2024-03-23T16:06:29;8.48;65.16
68912;SHT31;55953;51.650;-0.522;2024-03-23T16:08:57;8.68;64.95
68912;SHT31;55953;51.650;-0.522;2024-03-23T16:11:25;8.89;64.49
68912;SHT31;55953;51.650;-0.522;2024-03-23T16:13:53;9.02;62.58
68912;SHT31;55953;51.650;-0.522;2024-03-23T16:16:20;9.15;62.46
68912;SHT31;55953;51.650;-0.522;2024-03-23T16:18:49;9.24;62.83
68912;SHT31;55953;51.650;-0.522;2024-03-23T16:21:17;9.23;63.19
68912;SHT31;55953;51.650;-0.522;2024-03-23T16:23:45;9.20;61.59
68912;SHT31;55953;51.650;-0.522;2024-03-23T16:26:13;9.18;58.87
68912;SHT31;55953;51.650;-0.522;2024-03-23T16:28:43;9.32;59.67
68912;SHT31;55953;51.650;-0.522;2024-03-23T16:31:12;9.52;57.51
68912;SHT31;55953;51.650;-0.522;2024-03-23T16:33:40;9.63;57.43
68912;SHT31;55953;51.650;-0.522;2024-03-23T16:36:08;9.71;57.66
68912;SHT31;55953;51.650;-0.522;2024-03-23T16:38:41;9.74;56.52
68912;SHT31;55953;51.650;-0.522;2024-03-23T16:41:13;9.76;56.28
68912;SHT31;55953;51.650;-0.522;2024-03-23T16:43:44;9.78;56.64